Kerkük, Irak

Saat: 11:17 AM AST Tarih: 23 Eylül 2014 (GMT +0300)
Erbeel | Change Station
CLOSE
Current Station
Hava Meydanı
Location: Erbeel,
Yükseklik: 1378 ft
Nearby Weather Stations

Elev 1378 ft 36.15 °N, 44.00 °E | Updated 17 minutes ago

Partly Cloudy
Parçalı Bulutlu
86
Feels Like 86
N
8
Rüzgar Değişken Rüzgar from Batı

Bugün
High -- | Low -- F°
--% Chance of Precip.
Dün
High -- | Low -- F°
Precip. -- inç
5:50 AM 5:58 PM
Hilal, 1% visible
Basınç 29.86 inç
Görüş Uzaklığı 5.6 mil
Bulutlar Few 4500 ft
Çiğ noktası 43
Nem oranı 22%
Yağış 0.00 inç
Kar Kalınlığı Not available.
7 out of 12
Pollen Not available.
Hava Kalitesi Not available.
Flu Activity Not available.
METAR ORER 230800Z 27007KT 9000 FEW045 30/06 Q1011 NOSIG

More Conditions Fewer Conditions

Basınç 29.86 inç
Görüş Uzaklığı 5.6 mil
Bulutlar Few 4500 ft
Çiğ noktası 43
Nem oranı 22%
Yağış 0.00 inç
Kar Kalınlığı Not available.
7 out of 12
Pollen Not available.
Hava Kalitesi Not available.
Flu Activity Not available.
METAR ORER 230800Z 27007KT 9000 FEW045 30/06 Q1011 NOSIG

More Conditions Fewer Conditions

10-Day Weather Forecast

Almanac

Gökbilim

Sep. 23, 2014 Rise Set
Gerçek Zaman 05:50 AST 17:58 AST
Günlük Tan 05:25 AST 18:23 AST
Deniz Tanı 04:55 AST 18:53 AST
Geceyarısı Yıldız Zamanı 04:25 AST 19:23 AST
Ay 04:55 AST 17:25 AST
Görünür Işığın Uzunluğu 12h 58m
Günün Uzunluğu
12h 07m
Tomorrow will be 2m 13s shorter.
Hilal, 1% of the Moon is Illuminated
Bugün
Hilal
Sep 24
New
Oct 1
İlk Hilãl
Oct 8
Dolunay
Oct 15
Son Hilãl

Yesterday's Extremes

Country Highs Country Lows

Community

WunderPhotos

Upload Photos

1,755,608 photos uploaded!

Nearby

Kar Kalınlığı

Not available.

Earthquake Activity

Şehir Distance Mag. Time & Date
No recent earthquake activity has been reported nearby.
Minimum magnitude displayed is 2.5.

Coastal Water Temperatures

Yer Sıcaklık
No Stations Reporting

Nearby Weather Stations